首页
METAR-TAF:

METAR-TAF

机场 :

莫林, 伊利诺伊州, 美国

纬度: 41-27-05N, 经度: 090-30-53W, 海拔: 179米

当前天气观测

该预报发布于20分钟前的07:52 UTC
风速14节,风向西,有时为27节阵风
温度 -10°C
湿度 56%
气压 1018 hPa
能見度: 16.1公里
天空无云

METAR: KMLI 100752Z AUTO 28014G27KT 10SM CLR M10/M17 A3007 RMK AO2 PK WND 28029/0739 SLP190 T11001167 $

时间: 02:12 (08:12 UTC)

预报

该预报发布于2小时和4分钟前的06:08 UTC
预报有效从10日的 06点(UTC)到 11日的 06点(UTC)
风速15节,风向西转西北,有时为22节阵风
能見度: 10公里
多云层高于4000英尺
从 10日的 0800点(UTC)
风速12节,风向西北,有时为18节阵风
能見度: 10公里
天空无云
从 10日的 1500点(UTC)
风速11节,风向西转西北
能見度: 10公里
散云层高于8000英尺
从 11日的 0000点(UTC)
风速3节,风向多变
能見度: 10公里
散云层高于10000英尺

TAF: KMLI 100608Z 1006/1106 30015G22KT P6SM BKN040 FM100800 31012G18KT P6SM SKC FM101500 30011KT P6SM SCT080 FM110000 VRB03KT P6SM SCT100

超过4000个机场的气象观测和天气预报(METAR&TAF报告)。

可查询的气象台以黄色和红色小点在地图上表示。

将鼠标移到小点上方,可查看气象台名称。

然后点击查看天气观测和预报。

如需切换地图:点击带黑十字的绿色按钮放大地图;点击带横线的绿色按钮缩小地图;或者点击绿色箭头查看邻近地区的地图。


METAR-TAF: